Terminal Aerodrome Forecast
Issued by NWS South Bend, IN

Home | Current Version | Previous Version | Graphics & Text | Print | Product List | Glossary On
Versions: 1 2 3 4 5 6 7 8 9 10 11 12 13 14
000
FTUS43 KIWX 151700
TAFSBN
TAF
KSBN 151729Z 1518/1618 12014G24KT P6SM SCT250
     FM160100 10013KT P6SM BKN150
     FM160800 13010KT P6SM -SHRA OVC040
     FM161200 14009KT 5SM -SHRA BR OVC020=

USA.gov is the U.S. government's official web portal to all federal, state and local government web resources and services.